sensor_id;sensor_type;location;lat;lon;timestamp;pressure;altitude;pressure_sealevel;temperature;humidity
61769;BME280;47669;48.712;9.016;2024-02-04T00:01:30;97726.38;;;6.29;85.65
61769;BME280;47669;48.712;9.016;2024-02-04T00:03:55;97722.19;;;6.19;84.94
61769;BME280;47669;48.712;9.016;2024-02-04T00:06:21;97715.16;;;6.19;85.51
61769;BME280;47669;48.712;9.016;2024-02-04T00:08:46;97710.41;;;6.23;85.54
61769;BME280;47669;48.712;9.016;2024-02-04T00:11:11;97713.72;;;6.25;84.45
61769;BME280;47669;48.712;9.016;2024-02-04T00:13:38;97711.25;;;6.23;84.69
61769;BME280;47669;48.712;9.016;2024-02-04T00:16:03;97706.50;;;6.27;85.23
61769;BME280;47669;48.712;9.016;2024-02-04T00:18:28;97697.34;;;6.31;85.12
61769;BME280;47669;48.712;9.016;2024-02-04T00:20:54;97682.94;;;6.35;84.68
61769;BME280;47669;48.712;9.016;2024-02-04T00:23:19;97679.13;;;6.29;85.08
61769;BME280;47669;48.712;9.016;2024-02-04T00:25:44;97670.88;;;6.24;84.72
61769;BME280;47669;48.712;9.016;2024-02-04T00:28:09;97657.44;;;6.27;84.81
61769;BME280;47669;48.712;9.016;2024-02-04T00:30:38;97651.69;;;6.24;85.12
61769;BME280;47669;48.712;9.016;2024-02-04T00:33:04;97635.88;;;6.16;85.09
61769;BME280;47669;48.712;9.016;2024-02-04T00:35:29;97635.22;;;6.14;84.68
61769;BME280;47669;48.712;9.016;2024-02-04T00:37:55;97636.00;;;6.06;85.41
61769;BME280;47669;48.712;9.016;2024-02-04T00:40:20;97650.94;;;6.05;85.38
61769;BME280;47669;48.712;9.016;2024-02-04T00:42:46;97644.56;;;6.08;85.70
61769;BME280;47669;48.712;9.016;2024-02-04T00:45:11;97641.94;;;6.08;85.59
61769;BME280;47669;48.712;9.016;2024-02-04T00:47:36;97620.75;;;6.09;85.39
61769;BME280;47669;48.712;9.016;2024-02-04T00:50:02;97628.28;;;6.04;85.18
61769;BME280;47669;48.712;9.016;2024-02-04T00:52:27;97625.31;;;5.99;86.35
61769;BME280;47669;48.712;9.016;2024-02-04T00:54:53;97638.31;;;6.09;85.43
61769;BME280;47669;48.712;9.016;2024-02-04T00:57:18;97650.56;;;6.00;85.92
61769;BME280;47669;48.712;9.016;2024-02-04T00:59:43;97643.88;;;6.06;85.70
61769;BME280;47669;48.712;9.016;2024-02-04T01:02:08;97665.03;;;6.04;85.53
61769;BME280;47669;48.712;9.016;2024-02-04T01:04:34;97658.34;;;6.10;86.11
61769;BME280;47669;48.712;9.016;2024-02-04T01:06:59;97651.38;;;6.01;85.94
61769;BME280;47669;48.712;9.016;2024-02-04T01:09:24;97656.81;;;5.99;85.83
61769;BME280;47669;48.712;9.016;2024-02-04T01:11:49;97663.81;;;5.99;85.62
61769;BME280;47669;48.712;9.016;2024-02-04T01:14:15;97656.72;;;5.91;86.07
61769;BME280;47669;48.712;9.016;2024-02-04T01:16:40;97642.03;;;5.98;85.63
61769;BME280;47669;48.712;9.016;2024-02-04T01:19:05;97643.41;;;5.92;85.90
61769;BME280;47669;48.712;9.016;2024-02-04T01:21:30;97639.72;;;5.95;86.00
61769;BME280;47669;48.712;9.016;2024-02-04T01:23:56;97627.69;;;5.92;86.37
61769;BME280;47669;48.712;9.016;2024-02-04T01:26:21;97637.28;;;5.84;85.86
61769;BME280;47669;48.712;9.016;2024-02-04T01:28:48;97623.88;;;5.87;86.45
61769;BME280;47669;48.712;9.016;2024-02-04T01:31:14;97613.34;;;5.79;86.39
61769;BME280;47669;48.712;9.016;2024-02-04T01:33:39;97626.91;;;5.74;86.79
61769;BME280;47669;48.712;9.016;2024-02-04T01:36:04;97623.78;;;5.70;87.05
61769;BME280;47669;48.712;9.016;2024-02-04T01:38:30;97622.94;;;5.70;87.36
61769;BME280;47669;48.712;9.016;2024-02-04T01:40:55;97628.00;;;5.63;87.20
61769;BME280;47669;48.712;9.016;2024-02-04T01:43:20;97618.25;;;5.56;87.40
61769;BME280;47669;48.712;9.016;2024-02-04T01:45:49;97627.31;;;5.61;87.55
61769;BME280;47669;48.712;9.016;2024-02-04T01:48:15;97636.53;;;5.65;87.55
61769;BME280;47669;48.712;9.016;2024-02-04T01:50:41;97631.72;;;5.61;87.94
61769;BME280;47669;48.712;9.016;2024-02-04T01:53:07;97629.41;;;5.58;87.46
61769;BME280;47669;48.712;9.016;2024-02-04T01:55:32;97631.56;;;5.62;87.38
61769;BME280;47669;48.712;9.016;2024-02-04T01:57:58;97637.50;;;5.64;87.50
61769;BME280;47669;48.712;9.016;2024-02-04T02:00:23;97636.81;;;5.62;87.49
61769;BME280;47669;48.712;9.016;2024-02-04T02:02:49;97641.38;;;5.60;87.76
61769;BME280;47669;48.712;9.016;2024-02-04T02:05:15;97653.00;;;5.58;87.64
61769;BME280;47669;48.712;9.016;2024-02-04T02:07:41;97638.16;;;5.66;87.20
61769;BME280;47669;48.712;9.016;2024-02-04T02:10:07;97646.78;;;5.59;87.32
61769;BME280;47669;48.712;9.016;2024-02-04T02:12:40;97636.00;;;5.62;87.96
61769;BME280;47669;48.712;9.016;2024-02-04T02:15:23;97623.19;;;5.59;87.45
61769;BME280;47669;48.712;9.016;2024-02-04T02:18:02;97629.09;;;5.61;87.88
61769;BME280;47669;48.712;9.016;2024-02-04T02:23:22;97617.13;;;5.58;88.06
61769;BME280;47669;48.712;9.016;2024-02-04T02:25:49;97617.56;;;5.54;87.75
61769;BME280;47669;48.712;9.016;2024-02-04T02:28:15;97626.56;;;5.51;88.01
61769;BME280;47669;48.712;9.016;2024-02-04T02:30:40;97627.41;;;5.51;88.45
61769;BME280;47669;48.712;9.016;2024-02-04T02:33:06;97622.81;;;5.54;87.90
61769;BME280;47669;48.712;9.016;2024-02-04T02:35:33;97643.50;;;5.57;88.15
61769;BME280;47669;48.712;9.016;2024-02-04T02:38:24;97638.28;;;5.57;88.33
61769;BME280;47669;48.712;9.016;2024-02-04T02:41:06;97642.00;;;5.54;89.06
61769;BME280;47669;48.712;9.016;2024-02-04T02:43:34;97641.84;;;5.56;88.76
61769;BME280;47669;48.712;9.016;2024-02-04T02:46:01;97643.28;;;5.50;88.41
61769;BME280;47669;48.712;9.016;2024-02-04T02:48:26;97642.09;;;5.44;88.72
61769;BME280;47669;48.712;9.016;2024-02-04T02:50:53;97641.91;;;5.46;89.47
61769;BME280;47669;48.712;9.016;2024-02-04T02:53:18;97644.25;;;5.49;89.11
61769;BME280;47669;48.712;9.016;2024-02-04T02:55:45;97643.19;;;5.60;88.94
61769;BME280;47669;48.712;9.016;2024-02-04T02:58:12;97645.75;;;5.51;88.60
61769;BME280;47669;48.712;9.016;2024-02-04T03:00:37;97640.50;;;5.51;89.39
61769;BME280;47669;48.712;9.016;2024-02-04T03:03:03;97632.63;;;5.51;89.45
61769;BME280;47669;48.712;9.016;2024-02-04T03:05:28;97632.97;;;5.48;89.64
61769;BME280;47669;48.712;9.016;2024-02-04T03:07:53;97628.53;;;5.49;89.18
61769;BME280;47669;48.712;9.016;2024-02-04T03:10:18;97637.34;;;5.48;88.81
61769;BME280;47669;48.712;9.016;2024-02-04T03:12:44;97626.56;;;5.51;89.76
61769;BME280;47669;48.712;9.016;2024-02-04T03:15:09;97622.28;;;5.50;89.21
61769;BME280;47669;48.712;9.016;2024-02-04T03:17:34;97623.63;;;5.54;88.99
61769;BME280;47669;48.712;9.016;2024-02-04T03:20:00;97628.59;;;5.57;89.11
61769;BME280;47669;48.712;9.016;2024-02-04T03:22:25;97621.47;;;5.49;89.80
61769;BME280;47669;48.712;9.016;2024-02-04T03:24:50;97631.81;;;5.51;89.00
61769;BME280;47669;48.712;9.016;2024-02-04T03:27:17;97625.66;;;5.60;89.42
61769;BME280;47669;48.712;9.016;2024-02-04T03:29:43;97629.06;;;5.53;88.95
61769;BME280;47669;48.712;9.016;2024-02-04T03:32:10;97616.31;;;5.58;89.01
61769;BME280;47669;48.712;9.016;2024-02-04T03:34:35;97617.13;;;5.58;89.86
61769;BME280;47669;48.712;9.016;2024-02-04T03:37:01;97624.63;;;5.53;89.12
61769;BME280;47669;48.712;9.016;2024-02-04T03:39:26;97617.94;;;5.59;89.84
61769;BME280;47669;48.712;9.016;2024-02-04T03:41:51;97617.13;;;5.58;89.42
61769;BME280;47669;48.712;9.016;2024-02-04T03:44:17;97604.31;;;5.55;89.28
61769;BME280;47669;48.712;9.016;2024-02-04T03:46:42;97610.75;;;5.61;89.33
61769;BME280;47669;48.712;9.016;2024-02-04T03:49:07;97602.19;;;5.59;89.43
61769;BME280;47669;48.712;9.016;2024-02-04T03:51:33;97598.75;;;5.58;89.84
61769;BME280;47669;48.712;9.016;2024-02-04T03:53:58;97601.91;;;5.62;89.25
61769;BME280;47669;48.712;9.016;2024-02-04T03:56:23;97601.59;;;5.65;89.61
61769;BME280;47669;48.712;9.016;2024-02-04T03:58:49;97601.91;;;5.62;89.23
61769;BME280;47669;48.712;9.016;2024-02-04T04:01:15;97598.94;;;5.57;89.79
61769;BME280;47669;48.712;9.016;2024-02-04T04:03:41;97594.97;;;5.53;89.52
61769;BME280;47669;48.712;9.016;2024-02-04T04:06:07;97592.34;;;5.53;89.74
61769;BME280;47669;48.712;9.016;2024-02-04T04:08:34;97598.94;;;5.57;89.47
61769;BME280;47669;48.712;9.016;2024-02-04T04:10:59;97584.78;;;5.49;89.33
61769;BME280;47669;48.712;9.016;2024-02-04T04:13:24;97583.50;;;5.54;89.57
61769;BME280;47669;48.712;9.016;2024-02-04T04:15:50;97602.97;;;5.51;89.35
61769;BME280;47669;48.712;9.016;2024-02-04T04:18:16;97615.94;;;5.53;89.39
61769;BME280;47669;48.712;9.016;2024-02-04T04:20:41;97606.47;;;5.60;88.90
61769;BME280;47669;48.712;9.016;2024-02-04T04:23:06;97602.38;;;5.57;89.76
61769;BME280;47669;48.712;9.016;2024-02-04T04:25:32;97617.78;;;5.60;89.17
61769;BME280;47669;48.712;9.016;2024-02-04T04:27:58;97603.72;;;5.61;88.92
61769;BME280;47669;48.712;9.016;2024-02-04T04:30:23;97604.69;;;5.60;89.59
61769;BME280;47669;48.712;9.016;2024-02-04T04:32:49;97595.47;;;5.56;89.19
61769;BME280;47669;48.712;9.016;2024-02-04T04:35:14;97591.06;;;5.57;89.23
61769;BME280;47669;48.712;9.016;2024-02-04T04:37:39;97590.22;;;5.56;89.65
61769;BME280;47669;48.712;9.016;2024-02-04T04:40:05;97590.00;;;5.49;88.83
61769;BME280;47669;48.712;9.016;2024-02-04T04:42:30;97594.78;;;5.54;88.70
61769;BME280;47669;48.712;9.016;2024-02-04T04:44:56;97600.34;;;5.51;88.57
61769;BME280;47669;48.712;9.016;2024-02-04T04:47:21;97610.31;;;5.47;89.38
61769;BME280;47669;48.712;9.016;2024-02-04T04:49:47;97617.81;;;5.42;89.02
61769;BME280;47669;48.712;9.016;2024-02-04T04:52:12;97620.66;;;5.49;88.98
61769;BME280;47669;48.712;9.016;2024-02-04T04:54:39;97634.44;;;5.51;88.84
61769;BME280;47669;48.712;9.016;2024-02-04T04:57:04;97635.19;;;5.43;89.04
61769;BME280;47669;48.712;9.016;2024-02-04T04:59:29;97627.03;;;5.46;88.96
61769;BME280;47669;48.712;9.016;2024-02-04T05:01:55;97627.94;;;5.37;89.54
61769;BME280;47669;48.712;9.016;2024-02-04T05:04:20;97630.25;;;5.40;89.58
61769;BME280;47669;48.712;9.016;2024-02-04T05:06:48;97624.34;;;5.38;89.34
61769;BME280;47669;48.712;9.016;2024-02-04T05:09:14;97623.81;;;5.35;89.48
61769;BME280;47669;48.712;9.016;2024-02-04T05:11:39;97638.34;;;5.29;89.39
61769;BME280;47669;48.712;9.016;2024-02-04T05:14:04;97628.97;;;5.26;90.49
61769;BME280;47669;48.712;9.016;2024-02-04T05:16:30;97631.81;;;5.33;89.68
61769;BME280;47669;48.712;9.016;2024-02-04T05:18:55;97630.72;;;5.36;89.74
61769;BME280;47669;48.712;9.016;2024-02-04T05:21:20;97626.91;;;5.30;89.50
61769;BME280;47669;48.712;9.016;2024-02-04T05:23:46;97629.66;;;5.28;90.13
61769;BME280;47669;48.712;9.016;2024-02-04T05:26:11;97629.66;;;5.28;89.62
61769;BME280;47669;48.712;9.016;2024-02-04T05:28:36;97631.59;;;5.26;89.71
61769;BME280;47669;48.712;9.016;2024-02-04T05:31:02;97627.84;;;5.29;89.79
61769;BME280;47669;48.712;9.016;2024-02-04T05:33:27;97632.59;;;5.25;90.71
61769;BME280;47669;48.712;9.016;2024-02-04T05:35:53;97632.00;;;5.32;89.50
61769;BME280;47669;48.712;9.016;2024-02-04T05:38:18;97633.47;;;5.34;89.53
61769;BME280;47669;48.712;9.016;2024-02-04T05:40:43;97626.06;;;5.29;89.66
61769;BME280;47669;48.712;9.016;2024-02-04T05:43:09;97625.97;;;5.39;89.75
61769;BME280;47669;48.712;9.016;2024-02-04T05:45:37;97627.44;;;5.34;89.73
61769;BME280;47669;48.712;9.016;2024-02-04T05:48:04;97627.56;;;5.32;90.15
61769;BME280;47669;48.712;9.016;2024-02-04T05:50:29;97631.53;;;5.36;89.94
61769;BME280;47669;48.712;9.016;2024-02-04T05:52:54;97640.66;;;5.32;89.53
61769;BME280;47669;48.712;9.016;2024-02-04T05:55:20;97636.38;;;5.31;90.12
61769;BME280;47669;48.712;9.016;2024-02-04T05:57:45;97642.31;;;5.33;89.75
61769;BME280;47669;48.712;9.016;2024-02-04T06:00:11;97640.56;;;5.42;89.98
61769;BME280;47669;48.712;9.016;2024-02-04T06:02:37;97643.75;;;5.27;90.20
61769;BME280;47669;48.712;9.016;2024-02-04T06:05:02;97632.50;;;5.35;90.30
61769;BME280;47669;48.712;9.016;2024-02-04T06:07:28;97639.53;;;5.53;90.09
61769;BME280;47669;48.712;9.016;2024-02-04T06:09:54;97641.31;;;5.70;89.60
61769;BME280;47669;48.712;9.016;2024-02-04T06:12:21;97633.47;;;5.34;90.32
61769;BME280;47669;48.712;9.016;2024-02-04T06:14:46;97642.91;;;5.45;90.18
61769;BME280;47669;48.712;9.016;2024-02-04T06:17:11;97643.88;;;5.44;90.30
61769;BME280;47669;48.712;9.016;2024-02-04T06:19:37;97658.72;;;5.35;89.66
61769;BME280;47669;48.712;9.016;2024-02-04T06:22:02;97655.41;;;5.33;90.58
61769;BME280;47669;48.712;9.016;2024-02-04T06:24:28;97664.94;;;5.34;90.07
61769;BME280;47669;48.712;9.016;2024-02-04T06:26:53;97658.03;;;5.33;90.90
61769;BME280;47669;48.712;9.016;2024-02-04T06:29:18;97651.06;;;5.42;89.40
61769;BME280;47669;48.712;9.016;2024-02-04T06:31:44;97644.78;;;5.35;90.47
61769;BME280;47669;48.712;9.016;2024-02-04T06:34:10;97646.13;;;5.39;89.85
61769;BME280;47669;48.712;9.016;2024-02-04T06:36:35;97656.03;;;5.45;89.99
61769;BME280;47669;48.712;9.016;2024-02-04T06:39:01;97652.72;;;5.43;90.18
61769;BME280;47669;48.712;9.016;2024-02-04T06:41:26;97652.06;;;5.41;90.04
61769;BME280;47669;48.712;9.016;2024-02-04T06:43:51;97651.31;;;5.48;89.62
61769;BME280;47669;48.712;9.016;2024-02-04T06:46:24;97647.25;;;5.54;89.60
61769;BME280;47669;48.712;9.016;2024-02-04T06:48:50;97657.06;;;5.52;89.55
61769;BME280;47669;48.712;9.016;2024-02-04T06:51:15;97655.72;;;5.48;89.90
61769;BME280;47669;48.712;9.016;2024-02-04T06:53:40;97665.75;;;5.53;90.03
61769;BME280;47669;48.712;9.016;2024-02-04T06:56:06;97661.94;;;5.47;90.21
61769;BME280;47669;48.712;9.016;2024-02-04T06:58:32;97658.78;;;5.43;90.03
61769;BME280;47669;48.712;9.016;2024-02-04T07:00:57;97662.91;;;5.46;90.76
61769;BME280;47669;48.712;9.016;2024-02-04T07:03:22;97670.16;;;5.52;90.08
61769;BME280;47669;48.712;9.016;2024-02-04T07:05:48;97661.88;;;5.57;90.11
61769;BME280;47669;48.712;9.016;2024-02-04T07:08:13;97657.44;;;5.57;89.55
61769;BME280;47669;48.712;9.016;2024-02-04T07:10:39;97666.47;;;5.63;89.71
61769;BME280;47669;48.712;9.016;2024-02-04T07:13:04;97650.53;;;5.56;90.18
61769;BME280;47669;48.712;9.016;2024-02-04T07:15:29;97640.56;;;5.60;90.16
61769;BME280;47669;48.712;9.016;2024-02-04T07:17:54;97633.03;;;5.57;90.06
61769;BME280;47669;48.712;9.016;2024-02-04T07:20:20;97630.22;;;5.58;90.09
61769;BME280;47669;48.712;9.016;2024-02-04T07:22:45;97629.75;;;5.63;89.83
61769;BME280;47669;48.712;9.016;2024-02-04T07:25:10;97637.41;;;5.56;90.13
61769;BME280;47669;48.712;9.016;2024-02-04T07:27:36;97636.81;;;5.62;89.17
61769;BME280;47669;48.712;9.016;2024-02-04T07:30:01;97636.28;;;5.59;89.79
61769;BME280;47669;48.712;9.016;2024-02-04T07:32:28;97622.75;;;5.63;89.20
61769;BME280;47669;48.712;9.016;2024-02-04T07:34:53;97624.16;;;5.58;89.18
61769;BME280;47669;48.712;9.016;2024-02-04T07:37:19;97633.16;;;5.55;90.09
61769;BME280;47669;48.712;9.016;2024-02-04T07:39:44;97633.53;;;5.60;89.50
61769;BME280;47669;48.712;9.016;2024-02-04T07:42:09;97642.59;;;5.66;89.49
61769;BME280;47669;48.712;9.016;2024-02-04T07:44:35;97643.72;;;5.63;89.56
61769;BME280;47669;48.712;9.016;2024-02-04T07:47:00;97648.66;;;5.66;89.07
61769;BME280;47669;48.712;9.016;2024-02-04T07:49:26;97640.25;;;5.63;89.55
61769;BME280;47669;48.712;9.016;2024-02-04T07:51:51;97646.16;;;5.83;89.13
61769;BME280;47669;48.712;9.016;2024-02-04T07:54:17;97651.41;;;5.83;88.64
61769;BME280;47669;48.712;9.016;2024-02-04T07:56:42;97642.19;;;5.79;88.82
61769;BME280;47669;48.712;9.016;2024-02-04T07:59:07;97641.25;;;5.88;88.35
61769;BME280;47669;48.712;9.016;2024-02-04T08:01:32;97631.06;;;6.03;88.36
61769;BME280;47669;48.712;9.016;2024-02-04T08:03:58;97627.41;;;5.96;88.48
61769;BME280;47669;48.712;9.016;2024-02-04T08:06:23;97625.97;;;6.01;88.03
61769;BME280;47669;48.712;9.016;2024-02-04T08:08:48;97621.03;;;5.98;88.16
61769;BME280;47669;48.712;9.016;2024-02-04T08:11:18;97613.81;;;6.00;88.31
61769;BME280;47669;48.712;9.016;2024-02-04T08:13:43;97607.22;;;6.22;88.09
61769;BME280;47669;48.712;9.016;2024-02-04T08:16:09;97601.69;;;5.99;87.86
61769;BME280;47669;48.712;9.016;2024-02-04T08:18:35;97612.44;;;6.14;87.69
61769;BME280;47669;48.712;9.016;2024-02-04T08:21:00;97611.72;;;6.04;87.98
61769;BME280;47669;48.712;9.016;2024-02-04T08:23:28;97616.81;;;6.05;87.77
61769;BME280;47669;48.712;9.016;2024-02-04T08:25:53;97621.94;;;6.15;87.25
61769;BME280;47669;48.712;9.016;2024-02-04T08:28:19;97619.69;;;6.28;87.26
61769;BME280;47669;48.712;9.016;2024-02-04T08:30:44;97618.38;;;6.24;86.94
61769;BME280;47669;48.712;9.016;2024-02-04T08:33:10;97616.63;;;6.41;87.04
61769;BME280;47669;48.712;9.016;2024-02-04T08:35:35;97623.88;;;6.47;86.10
61769;BME280;47669;48.712;9.016;2024-02-04T08:38:01;97623.94;;;6.56;85.66
61769;BME280;47669;48.712;9.016;2024-02-04T08:40:26;97616.25;;;6.70;86.16
61769;BME280;47669;48.712;9.016;2024-02-04T08:42:51;97617.41;;;6.68;85.88
61769;BME280;47669;48.712;9.016;2024-02-04T08:45:17;97623.47;;;6.68;85.47
61769;BME280;47669;48.712;9.016;2024-02-04T08:47:42;97635.13;;;6.66;85.79
61769;BME280;47669;48.712;9.016;2024-02-04T08:50:08;97633.69;;;6.71;84.48
61769;BME280;47669;48.712;9.016;2024-02-04T08:52:34;97652.00;;;7.06;84.97
61769;BME280;47669;48.712;9.016;2024-02-04T08:55:00;97647.25;;;7.09;83.75
61769;BME280;47669;48.712;9.016;2024-02-04T08:57:25;97632.63;;;6.99;83.82
61769;BME280;47669;48.712;9.016;2024-02-04T08:59:50;97634.25;;;7.00;83.39
61769;BME280;47669;48.712;9.016;2024-02-04T09:02:16;97623.91;;;7.06;82.90
61769;BME280;47669;48.712;9.016;2024-02-04T09:04:42;97618.34;;;7.18;82.57
61769;BME280;47669;48.712;9.016;2024-02-04T09:07:09;97615.06;;;7.16;82.59
61769;BME280;47669;48.712;9.016;2024-02-04T09:09:37;97624.91;;;7.13;82.79
61769;BME280;47669;48.712;9.016;2024-02-04T09:12:03;97619.00;;;7.11;82.65
61769;BME280;47669;48.712;9.016;2024-02-04T09:14:28;97615.41;;;7.37;83.00
61769;BME280;47669;48.712;9.016;2024-02-04T09:16:53;97615.72;;;7.18;82.61
61769;BME280;47669;48.712;9.016;2024-02-04T09:19:19;97623.75;;;7.08;82.28
61769;BME280;47669;48.712;9.016;2024-02-04T09:21:44;97617.53;;;7.25;82.29
61769;BME280;47669;48.712;9.016;2024-02-04T09:24:10;97626.06;;;7.19;81.84
61769;BME280;47669;48.712;9.016;2024-02-04T09:26:36;97621.47;;;7.21;82.62
61769;BME280;47669;48.712;9.016;2024-02-04T09:29:01;97628.38;;;7.47;81.41
61769;BME280;47669;48.712;9.016;2024-02-04T09:31:26;97631.19;;;7.45;81.36
61769;BME280;47669;48.712;9.016;2024-02-04T09:33:53;97625.09;;;7.28;82.48
61769;BME280;47669;48.712;9.016;2024-02-04T09:36:18;97627.41;;;7.48;81.59
61769;BME280;47669;48.712;9.016;2024-02-04T09:38:44;97632.66;;;7.64;81.23
61769;BME280;47669;48.712;9.016;2024-02-04T09:41:09;97635.13;;;7.49;81.03
61769;BME280;47669;48.712;9.016;2024-02-04T09:43:35;97629.69;;;7.75;80.50
61769;BME280;47669;48.712;9.016;2024-02-04T09:46:01;97633.44;;;8.06;79.81
61769;BME280;47669;48.712;9.016;2024-02-04T09:48:30;97633.63;;;7.96;79.30
61769;BME280;47669;48.712;9.016;2024-02-04T09:50:56;97630.91;;;8.29;79.06
61769;BME280;47669;48.712;9.016;2024-02-04T09:53:31;97649.09;;;8.63;77.60
61769;BME280;47669;48.712;9.016;2024-02-04T09:55:58;97644.75;;;8.23;78.31
61769;BME280;47669;48.712;9.016;2024-02-04T09:58:23;97650.97;;;8.46;77.45
61769;BME280;47669;48.712;9.016;2024-02-04T10:00:50;97640.59;;;8.84;77.17
61769;BME280;47669;48.712;9.016;2024-02-04T10:03:16;97637.56;;;8.64;76.89
61769;BME280;47669;48.712;9.016;2024-02-04T10:05:41;97630.59;;;8.71;76.58
61769;BME280;47669;48.712;9.016;2024-02-04T10:08:06;97624.63;;;8.86;76.55
61769;BME280;47669;48.712;9.016;2024-02-04T10:10:32;97613.53;;;8.90;76.55
61769;BME280;47669;48.712;9.016;2024-02-04T10:12:57;97614.72;;;8.88;76.00
61769;BME280;47669;48.712;9.016;2024-02-04T10:15:22;97607.34;;;8.83;77.13
61769;BME280;47669;48.712;9.016;2024-02-04T10:17:48;97598.22;;;8.94;75.67
61769;BME280;47669;48.712;9.016;2024-02-04T10:20:14;97605.00;;;9.11;75.73
61769;BME280;47669;48.712;9.016;2024-02-04T10:22:39;97593.66;;;9.11;74.81
61769;BME280;47669;48.712;9.016;2024-02-04T10:25:06;97583.09;;;9.34;73.97
61769;BME280;47669;48.712;9.016;2024-02-04T10:27:32;97584.03;;;9.18;74.56
61769;BME280;47669;48.712;9.016;2024-02-04T10:29:58;97579.50;;;9.27;74.54
61769;BME280;47669;48.712;9.016;2024-02-04T10:32:23;97570.56;;;9.74;73.54
61769;BME280;47669;48.712;9.016;2024-02-04T10:34:49;97564.34;;;9.06;74.29
61769;BME280;47669;48.712;9.016;2024-02-04T10:37:14;97556.13;;;9.47;73.78
61769;BME280;47669;48.712;9.016;2024-02-04T10:39:39;97565.50;;;9.26;74.47
61769;BME280;47669;48.712;9.016;2024-02-04T10:42:06;97575.13;;;9.42;75.16
61769;BME280;47669;48.712;9.016;2024-02-04T10:44:35;97581.22;;;9.20;74.63
61769;BME280;47669;48.712;9.016;2024-02-04T10:47:05;97558.94;;;9.22;75.16
61769;BME280;47669;48.712;9.016;2024-02-04T10:49:33;97564.75;;;9.17;75.49
61769;BME280;47669;48.712;9.016;2024-02-04T10:51:59;97592.28;;;9.61;75.14
61769;BME280;47669;48.712;9.016;2024-02-04T10:54:27;97616.31;;;9.43;75.00
61769;BME280;47669;48.712;9.016;2024-02-04T10:56:56;97618.69;;;9.38;75.18
61769;BME280;47669;48.712;9.016;2024-02-04T10:59:27;97618.63;;;9.23;75.40
61769;BME280;47669;48.712;9.016;2024-02-04T11:01:55;97607.19;;;9.31;75.98
61769;BME280;47669;48.712;9.016;2024-02-04T11:04:22;97601.72;;;9.32;75.52
61769;BME280;47669;48.712;9.016;2024-02-04T11:06:49;97594.47;;;9.34;75.57
61769;BME280;47669;48.712;9.016;2024-02-04T11:09:15;97583.84;;;9.43;75.16
61769;BME280;47669;48.712;9.016;2024-02-04T11:11:43;97573.47;;;9.18;75.56
61769;BME280;47669;48.712;9.016;2024-02-04T11:14:13;97568.16;;;9.26;75.70
61769;BME280;47669;48.712;9.016;2024-02-04T11:27:06;97580.88;;;9.61;74.92
61769;BME280;47669;48.712;9.016;2024-02-04T11:29:31;97569.53;;;9.75;75.17
61769;BME280;47669;48.712;9.016;2024-02-04T11:31:57;97572.06;;;9.53;74.47
61769;BME280;47669;48.712;9.016;2024-02-04T11:34:23;97581.41;;;9.56;74.90
61769;BME280;47669;48.712;9.016;2024-02-04T11:36:49;97569.69;;;9.58;75.65
61769;BME280;47669;48.712;9.016;2024-02-04T11:39:17;97558.00;;;9.91;74.96
61769;BME280;47669;48.712;9.016;2024-02-04T11:41:47;97556.72;;;9.72;73.19
61769;BME280;47669;48.712;9.016;2024-02-04T11:44:12;97558.63;;;10.52;71.24
61769;BME280;47669;48.712;9.016;2024-02-04T11:46:38;97550.81;;;9.85;72.64
61769;BME280;47669;48.712;9.016;2024-02-04T11:49:03;97550.44;;;10.17;73.36
61769;BME280;47669;48.712;9.016;2024-02-04T11:51:29;97550.59;;;9.86;72.89
61769;BME280;47669;48.712;9.016;2024-02-04T11:53:55;97556.44;;;9.96;72.84
61769;BME280;47669;48.712;9.016;2024-02-04T11:56:23;97550.63;;;10.16;73.36
61769;BME280;47669;48.712;9.016;2024-02-04T11:58:49;97548.81;;;10.46;73.04
61769;BME280;47669;48.712;9.016;2024-02-04T12:01:14;97542.97;;;10.21;72.34
61769;BME280;47669;48.712;9.016;2024-02-04T12:03:41;97535.59;;;10.16;73.58
61769;BME280;47669;48.712;9.016;2024-02-04T12:06:06;97528.88;;;9.84;74.79
61769;BME280;47669;48.712;9.016;2024-02-04T12:08:34;97539.31;;;9.77;73.53
61769;BME280;47669;48.712;9.016;2024-02-04T12:11:00;97519.38;;;9.60;74.92
61769;BME280;47669;48.712;9.016;2024-02-04T12:13:28;97509.91;;;9.51;75.05
61769;BME280;47669;48.712;9.016;2024-02-04T12:15:53;97506.91;;;9.84;75.06
61769;BME280;47669;48.712;9.016;2024-02-04T12:18:19;97524.81;;;9.21;75.81
61769;BME280;47669;48.712;9.016;2024-02-04T12:20:48;97529.47;;;9.56;76.29
61769;BME280;47669;48.712;9.016;2024-02-04T12:23:14;97515.09;;;9.59;75.73
61769;BME280;47669;48.712;9.016;2024-02-04T12:25:40;97514.97;;;9.52;75.47
61769;BME280;47669;48.712;9.016;2024-02-04T12:28:06;97510.81;;;10.03;73.06
61769;BME280;47669;48.712;9.016;2024-02-04T12:30:32;97504.56;;;10.04;73.41
61769;BME280;47669;48.712;9.016;2024-02-04T12:33:02;97508.00;;;10.04;73.08
61769;BME280;47669;48.712;9.016;2024-02-04T12:35:29;97502.56;;;9.76;73.57
61769;BME280;47669;48.712;9.016;2024-02-04T12:37:56;97503.72;;;9.73;73.69
61769;BME280;47669;48.712;9.016;2024-02-04T12:40:30;97502.00;;;9.51;75.28
61769;BME280;47669;48.712;9.016;2024-02-04T12:45:23;97492.63;;;9.93;73.94
61769;BME280;47669;48.712;9.016;2024-02-04T12:47:53;97498.81;;;10.00;73.47
61769;BME280;47669;48.712;9.016;2024-02-04T12:50:22;97496.22;;;10.36;71.80
61769;BME280;47669;48.712;9.016;2024-02-04T12:52:48;97491.88;;;10.29;72.39
61769;BME280;47669;48.712;9.016;2024-02-04T12:55:23;97495.88;;;10.25;71.79
61769;BME280;47669;48.712;9.016;2024-02-04T12:57:49;97483.09;;;10.28;72.22
61769;BME280;47669;48.712;9.016;2024-02-04T13:00:17;97493.44;;;10.08;72.75
61769;BME280;47669;48.712;9.016;2024-02-04T13:02:43;97491.16;;;9.75;73.38
61769;BME280;47669;48.712;9.016;2024-02-04T13:05:08;97480.66;;;9.37;74.40
61769;BME280;47669;48.712;9.016;2024-02-04T13:07:33;97483.53;;;9.81;73.50
61769;BME280;47669;48.712;9.016;2024-02-04T13:09:59;97484.34;;;9.81;73.83
61769;BME280;47669;48.712;9.016;2024-02-04T13:12:25;97471.69;;;9.91;73.83
61769;BME280;47669;48.712;9.016;2024-02-04T13:14:50;97485.13;;;10.11;72.84
61769;BME280;47669;48.712;9.016;2024-02-04T13:17:15;97486.69;;;10.21;72.69
61769;BME280;47669;48.712;9.016;2024-02-04T13:19:41;97483.97;;;9.99;73.25